Time;durP1;ratioP1;P1;durP2;ratioP2;P2;SDS_P1;SDS_P2;PMS_P1;PMS_P2;Temp;Humidity;BMP_temperature;BMP_pressure;BME280_temperature;BME280_humidity;BME280_pressure;Samples;Min_cycle;Max_cycle;Signal;HPM_P1;HPM_P2
2021/06/25 00:02:12;;;;;;;;;;;11.60;99.90;;;;;;4981407;28;19918;-79
2021/06/25 00:04:37;;;;;;;;;;;11.60;99.90;;;;;;4962530;28;19972;-79
2021/06/25 00:07:03;;;;;;;;;;;11.70;99.90;;;;;;4980705;28;19912;-80
2021/06/25 00:09:29;;;;;;;;;;;11.70;99.90;;;;;;4954253;28;20001;-76
2021/06/25 00:11:54;;;;;;;;;;;11.70;99.90;;;;;;4957465;28;19911;-79
2021/06/25 00:14:22;;;;;;;;;;;11.60;99.90;;;;;;4954556;28;20304;-79
2021/06/25 00:16:49;;;;;;;;;;;11.60;99.90;;;;;;4984337;28;19911;-79
2021/06/25 00:19:14;;;;;;;;;;;11.50;99.90;;;;;;4954598;28;19997;-79
2021/06/25 00:21:40;;;;;;;;;;;11.50;99.90;;;;;;4955233;28;20029;-79
2021/06/25 00:24:05;;;;;;;;;;;11.50;99.90;;;;;;4952867;28;19917;-79
2021/06/25 00:26:31;;;;;;;;;;;11.50;99.90;;;;;;4953981;28;20040;-78
2021/06/25 00:28:56;;;;;;;;;;;11.50;99.90;;;;;;4955393;28;19917;-80
2021/06/25 00:31:22;;;;;;;;;;;11.50;99.90;;;;;;4949455;28;19968;-80
2021/06/25 00:33:47;;;;;;;;;;;11.50;99.90;;;;;;4974938;28;19924;-79
2021/06/25 00:36:13;;;;;;;;;;;11.50;99.90;;;;;;4984051;28;19914;-80
2021/06/25 00:38:39;;;;;;;;;;;11.50;99.90;;;;;;4978312;28;19916;-76
2021/06/25 00:41:04;;;;;;;;;;;11.50;99.90;;;;;;4988535;28;19915;-79
2021/06/25 00:43:30;;;;;;;;;;;11.40;99.90;;;;;;4971091;28;19914;-79
2021/06/25 00:45:55;;;;;;;;;;;11.30;99.90;;;;;;4964847;28;19918;-78
2021/06/25 00:48:21;;;;;;;;;;;11.30;99.90;;;;;;4977283;28;19914;-79
2021/06/25 00:50:46;;;;;;;;;;;11.30;99.90;;;;;;4950934;28;19964;-80
2021/06/25 00:53:12;;;;;;;;;;;11.20;99.90;;;;;;4960614;28;20285;-80
2021/06/25 00:55:44;;;;;;;;;;;11.10;99.90;;;;;;4971071;28;20285;-80
2021/06/25 00:58:13;;;;;;;;;;;11.00;99.90;;;;;;4981100;28;19917;-76
2021/06/25 01:00:39;;;;;;;;;;;10.90;99.90;;;;;;4973542;28;19929;-79
2021/06/25 01:03:05;;;;;;;;;;;10.90;99.90;;;;;;4968024;28;19922;-80
2021/06/25 01:05:31;;;;;;;;;;;10.80;99.90;;;;;;4958751;28;20291;-79
2021/06/25 01:07:56;;;;;;;;;;;10.70;99.90;;;;;;4965024;28;20302;-80
2021/06/25 01:10:22;;;;;;;;;;;10.70;99.90;;;;;;4996898;28;20297;-79
2021/06/25 01:12:48;;;;;;;;;;;10.70;99.90;;;;;;4990431;28;19920;-77
2021/06/25 01:15:14;;;;;;;;;;;10.70;99.90;;;;;;4966998;28;19910;-77
2021/06/25 01:17:41;;;;;;;;;;;10.70;99.90;;;;;;4986707;28;19917;-78
2021/06/25 01:20:08;;;;;;;;;;;10.70;99.90;;;;;;4976174;28;19925;-79
2021/06/25 01:22:34;;;;;;;;;;;10.70;99.90;;;;;;4976981;28;19911;-78
2021/06/25 01:25:04;;;;;;;;;;;10.80;99.90;;;;;;4974207;28;20220;-79
2021/06/25 01:27:30;;;;;;;;;;;10.80;99.90;;;;;;4978211;28;20265;-79
2021/06/25 01:29:57;;;;;;;;;;;10.90;99.90;;;;;;4980036;28;19916;-79
2021/06/25 01:32:22;;;;;;;;;;;10.80;99.90;;;;;;4956511;28;19914;-80
2021/06/25 01:34:48;;;;;;;;;;;10.80;99.90;;;;;;5015873;28;20008;-81
2021/06/25 01:37:14;;;;;;;;;;;10.80;99.90;;;;;;5017929;28;19924;-81
2021/06/25 01:39:40;;;;;;;;;;;10.70;99.90;;;;;;4954753;28;19914;-79
2021/06/25 01:42:06;;;;;;;;;;;10.70;99.90;;;;;;4959939;28;19920;-80
2021/06/25 01:44:32;;;;;;;;;;;10.60;99.90;;;;;;4963665;28;20739;-79
2021/06/25 01:47:00;;;;;;;;;;;10.60;99.90;;;;;;4959068;28;19933;-77
2021/06/25 01:49:25;;;;;;;;;;;10.60;99.90;;;;;;4959486;28;20368;-79
2021/06/25 01:51:51;;;;;;;;;;;10.50;99.90;;;;;;4959158;28;19961;-81
2021/06/25 01:54:16;;;;;;;;;;;10.50;99.90;;;;;;4957557;28;20009;-80
2021/06/25 01:56:42;;;;;;;;;;;10.50;99.90;;;;;;4959779;28;19911;-80
2021/06/25 01:59:09;;;;;;;;;;;10.50;99.90;;;;;;4974701;28;20236;-79
2021/06/25 02:01:34;;;;;;;;;;;10.50;99.90;;;;;;4978895;28;19916;-80
2021/06/25 02:04:00;;;;;;;;;;;10.40;99.90;;;;;;5011187;28;19914;-79
2021/06/25 02:06:25;;;;;;;;;;;10.40;99.90;;;;;;5028929;28;19912;-79
2021/06/25 02:08:51;;;;;;;;;;;10.40;99.90;;;;;;4973274;28;19931;-80
2021/06/25 02:11:18;;;;;;;;;;;10.40;99.90;;;;;;5014218;28;19906;-80
2021/06/25 02:13:43;;;;;;;;;;;10.40;99.90;;;;;;4955064;28;19914;-79
2021/06/25 02:16:09;;;;;;;;;;;10.50;99.90;;;;;;4962889;28;19955;-76
2021/06/25 02:18:34;;;;;;;;;;;10.50;99.90;;;;;;4959397;28;19950;-79
2021/06/25 02:21:01;;;;;;;;;;;10.60;99.90;;;;;;4959516;28;19976;-79
2021/06/25 02:23:27;;;;;;;;;;;10.60;99.90;;;;;;4954941;28;20368;-80
2021/06/25 02:25:52;;;;;;;;;;;10.70;99.90;;;;;;4961286;28;20010;-80
2021/06/25 02:28:18;;;;;;;;;;;10.80;99.90;;;;;;4953800;28;20242;-80
2021/06/25 02:30:44;;;;;;;;;;;10.80;99.90;;;;;;5020416;28;19921;-81
2021/06/25 02:33:09;;;;;;;;;;;10.80;99.90;;;;;;4954783;28;19910;-79
2021/06/25 02:35:35;;;;;;;;;;;10.80;99.90;;;;;;4956565;28;20378;-78
2021/06/25 02:38:00;;;;;;;;;;;10.80;99.90;;;;;;4955487;28;19906;-79
2021/06/25 02:40:26;;;;;;;;;;;10.90;99.90;;;;;;4968365;28;19945;-78
2021/06/25 02:42:52;;;;;;;;;;;10.90;99.90;;;;;;4969957;28;19917;-78
2021/06/25 02:45:17;;;;;;;;;;;10.90;99.90;;;;;;4970020;28;19945;-78
2021/06/25 02:47:44;;;;;;;;;;;10.90;99.90;;;;;;4955580;28;20182;-79
2021/06/25 02:50:09;;;;;;;;;;;11.00;99.90;;;;;;4959371;28;19931;-78
2021/06/25 02:52:37;;;;;;;;;;;11.00;99.90;;;;;;4952543;28;20232;-79
2021/06/25 02:55:03;;;;;;;;;;;11.00;99.90;;;;;;4979828;28;19910;-79
2021/06/25 02:57:29;;;;;;;;;;;11.10;99.90;;;;;;4964912;28;20009;-76
2021/06/25 02:59:55;;;;;;;;;;;11.20;99.90;;;;;;4960003;28;20001;-80
2021/06/25 03:02:20;;;;;;;;;;;11.20;99.90;;;;;;4954379;28;19914;-79
2021/06/25 03:04:46;;;;;;;;;;;11.20;99.90;;;;;;4960890;28;20315;-77
2021/06/25 03:07:11;;;;;;;;;;;11.30;99.90;;;;;;4958593;28;19925;-78
2021/06/25 03:09:37;;;;;;;;;;;11.30;99.90;;;;;;4953286;28;19910;-79
2021/06/25 03:12:03;;;;;;;;;;;11.40;99.90;;;;;;4964787;28;19911;-79
2021/06/25 03:14:28;;;;;;;;;;;11.40;99.90;;;;;;4967430;28;19921;-76
2021/06/25 03:16:54;;;;;;;;;;;11.40;99.90;;;;;;4953845;28;19915;-79
2021/06/25 03:19:20;;;;;;;;;;;11.50;99.90;;;;;;4972411;28;19959;-78
2021/06/25 03:21:45;;;;;;;;;;;11.50;99.90;;;;;;4967328;28;19918;-78
2021/06/25 03:24:12;;;;;;;;;;;11.60;99.90;;;;;;4959373;28;19914;-78
2021/06/25 03:26:38;;;;;;;;;;;11.60;99.90;;;;;;4952637;28;19990;-78
2021/06/25 03:29:03;;;;;;;;;;;11.60;99.90;;;;;;4950575;28;19910;-78
2021/06/25 03:31:29;;;;;;;;;;;11.70;99.90;;;;;;4969785;28;19910;-78
2021/06/25 03:33:55;;;;;;;;;;;11.70;99.90;;;;;;5001976;28;20176;-77
2021/06/25 03:36:21;;;;;;;;;;;11.80;99.90;;;;;;4950504;28;19918;-79
2021/06/25 03:38:46;;;;;;;;;;;11.80;99.90;;;;;;4974168;28;19911;-79
2021/06/25 03:41:12;;;;;;;;;;;11.80;99.90;;;;;;4952645;28;19993;-79
2021/06/25 03:43:37;;;;;;;;;;;11.90;99.90;;;;;;4955085;28;19906;-78
2021/06/25 03:46:03;;;;;;;;;;;11.90;99.90;;;;;;5000954;28;19910;-79
2021/06/25 03:48:29;;;;;;;;;;;11.90;99.90;;;;;;4956211;28;20297;-79
2021/06/25 03:50:54;;;;;;;;;;;11.90;99.90;;;;;;4968389;28;20752;-79
2021/06/25 03:53:20;;;;;;;;;;;11.90;99.90;;;;;;4954624;28;19956;-78
2021/06/25 03:58:29;;;;;;;;;;;12.00;99.90;;;;;;4965977;28;19985;-78
2021/06/25 04:00:55;;;;;;;;;;;12.00;99.90;;;;;;4983998;28;19914;-78
2021/06/25 04:03:21;;;;;;;;;;;12.00;99.90;;;;;;4975221;28;19919;-78
2021/06/25 04:05:46;;;;;;;;;;;12.00;99.90;;;;;;4952659;28;19915;-79
2021/06/25 04:08:12;;;;;;;;;;;12.00;99.90;;;;;;4990357;28;19910;-79
2021/06/25 04:10:37;;;;;;;;;;;12.10;99.90;;;;;;4984129;28;19925;-79
2021/06/25 04:13:03;;;;;;;;;;;12.10;99.90;;;;;;4991467;28;19906;-79
2021/06/25 04:15:28;;;;;;;;;;;12.10;99.90;;;;;;4944151;28;20346;-79
2021/06/25 04:17:54;;;;;;;;;;;12.20;99.90;;;;;;4963400;28;19942;-79
2021/06/25 04:20:20;;;;;;;;;;;12.20;99.90;;;;;;4967177;28;19925;-78
2021/06/25 04:22:46;;;;;;;;;;;12.20;99.90;;;;;;4953534;28;19918;-79
2021/06/25 04:25:12;;;;;;;;;;;12.20;99.90;;;;;;4952942;28;19925;-81
2021/06/25 04:27:37;;;;;;;;;;;12.20;99.90;;;;;;4982982;28;19917;-79
2021/06/25 04:30:04;;;;;;;;;;;12.20;99.90;;;;;;4947057;28;19957;-79
2021/06/25 04:32:31;;;;;;;;;;;12.20;99.90;;;;;;4950876;28;19911;-80
2021/06/25 04:34:56;;;;;;;;;;;12.20;99.90;;;;;;4954359;28;19911;-80
2021/06/25 04:37:22;;;;;;;;;;;12.20;99.90;;;;;;4955579;28;19922;-80
2021/06/25 04:39:47;;;;;;;;;;;12.20;99.90;;;;;;4988220;28;19917;-82
2021/06/25 04:42:13;;;;;;;;;;;12.20;99.90;;;;;;4985322;28;19906;-80
2021/06/25 04:44:39;;;;;;;;;;;12.20;99.90;;;;;;4952704;28;19914;-79
2021/06/25 04:47:05;;;;;;;;;;;12.30;99.90;;;;;;4952127;28;20253;-82
2021/06/25 04:49:31;;;;;;;;;;;12.30;99.90;;;;;;4953357;28;20208;-79
2021/06/25 04:51:57;;;;;;;;;;;12.30;99.90;;;;;;4966869;28;19923;-79
2021/06/25 04:54:22;;;;;;;;;;;12.30;99.90;;;;;;4957331;28;19914;-79
2021/06/25 04:56:48;;;;;;;;;;;12.40;99.90;;;;;;4955949;28;19911;-77
2021/06/25 04:59:13;;;;;;;;;;;12.40;99.90;;;;;;4953283;28;19915;-79
2021/06/25 05:01:40;;;;;;;;;;;12.50;99.90;;;;;;4957950;28;19957;-80
2021/06/25 05:04:05;;;;;;;;;;;12.50;99.90;;;;;;4991308;28;19914;-81
2021/06/25 05:06:31;;;;;;;;;;;12.50;99.90;;;;;;4974653;28;19918;-79
2021/06/25 05:08:56;;;;;;;;;;;12.60;99.90;;;;;;4953684;28;20356;-80
2021/06/25 05:11:22;;;;;;;;;;;12.70;99.90;;;;;;4977529;28;19917;-80
2021/06/25 05:13:48;;;;;;;;;;;12.70;99.90;;;;;;4949202;28;19984;-79
2021/06/25 05:16:14;;;;;;;;;;;12.70;99.90;;;;;;4946323;29;20047;-80
2021/06/25 05:18:39;;;;;;;;;;;12.80;99.90;;;;;;5004340;28;19918;-80
2021/06/25 05:21:05;;;;;;;;;;;12.80;99.90;;;;;;4959274;28;19929;-80
2021/06/25 05:23:31;;;;;;;;;;;12.80;99.90;;;;;;4957168;28;19917;-79
2021/06/25 05:25:57;;;;;;;;;;;12.80;99.90;;;;;;5007606;28;19913;-79
2021/06/25 05:28:23;;;;;;;;;;;12.80;99.90;;;;;;4952418;28;19942;-80
2021/06/25 05:30:48;;;;;;;;;;;12.80;99.90;;;;;;5010035;28;20003;-79
2021/06/25 05:33:14;;;;;;;;;;;12.90;99.90;;;;;;4953281;28;20384;-80
2021/06/25 05:35:40;;;;;;;;;;;12.90;99.90;;;;;;4959977;28;19914;-79
2021/06/25 05:38:08;;;;;;;;;;;12.90;99.90;;;;;;4999499;28;19953;-80
2021/06/25 05:40:34;;;;;;;;;;;13.00;99.90;;;;;;4953823;28;20360;-80
2021/06/25 05:43:00;;;;;;;;;;;13.00;99.90;;;;;;4984498;28;20266;-80
2021/06/25 05:45:25;;;;;;;;;;;13.00;99.90;;;;;;4969645;28;19984;-82
2021/06/25 05:47:51;;;;;;;;;;;13.00;99.90;;;;;;4952809;28;19906;-80
2021/06/25 05:50:17;;;;;;;;;;;13.00;99.90;;;;;;4952829;28;20231;-81
2021/06/25 05:52:43;;;;;;;;;;;13.00;99.90;;;;;;4964475;28;19958;-76
2021/06/25 05:55:09;;;;;;;;;;;13.10;99.90;;;;;;4953402;28;20400;-83
2021/06/25 05:57:35;;;;;;;;;;;13.20;99.90;;;;;;4961445;28;19996;-79
2021/06/25 06:00:01;;;;;;;;;;;13.20;99.90;;;;;;4956977;28;19914;-84
2021/06/25 06:02:26;;;;;;;;;;;13.20;99.90;;;;;;5011556;28;20204;-84
2021/06/25 06:04:52;;;;;;;;;;;13.20;99.90;;;;;;4971366;28;20272;-81
2021/06/25 06:07:17;;;;;;;;;;;13.30;99.90;;;;;;4972491;28;19907;-83
2021/06/25 06:09:43;;;;;;;;;;;13.40;99.90;;;;;;4958349;28;19918;-82
2021/06/25 06:12:09;;;;;;;;;;;13.40;99.90;;;;;;4954271;28;19914;-81
2021/06/25 06:14:34;;;;;;;;;;;13.60;99.90;;;;;;4955201;28;19914;-80
2021/06/25 06:17:00;;;;;;;;;;;13.70;99.90;;;;;;4959695;28;20003;-83
2021/06/25 06:19:25;;;;;;;;;;;13.80;99.90;;;;;;4955691;28;20212;-81
2021/06/25 06:35:13;;;;;;;;;;;14.40;99.90;;;;;;4955488;28;19910;-80
2021/06/25 06:37:39;;;;;;;;;;;14.40;99.90;;;;;;4954946;28;19910;-86
2021/06/25 06:40:05;;;;;;;;;;;14.50;99.90;;;;;;4956127;28;19918;-81
2021/06/25 06:42:31;;;;;;;;;;;14.60;99.90;;;;;;4950721;28;19914;-79
2021/06/25 06:44:57;;;;;;;;;;;14.70;99.90;;;;;;4959413;28;19960;-82
2021/06/25 06:47:22;;;;;;;;;;;14.80;99.90;;;;;;4950560;28;19906;-81
2021/06/25 06:49:48;;;;;;;;;;;14.90;99.90;;;;;;4951804;28;19930;-82
2021/06/25 06:52:13;;;;;;;;;;;15.00;99.90;;;;;;4965248;28;19911;-83
2021/06/25 06:54:39;;;;;;;;;;;15.10;99.90;;;;;;4975676;28;19914;-83
2021/06/25 06:57:05;;;;;;;;;;;15.20;99.90;;;;;;4967724;28;20602;-83
2021/06/25 06:59:30;;;;;;;;;;;15.30;99.90;;;;;;4963354;28;20315;-79
2021/06/25 07:01:56;;;;;;;;;;;15.40;99.90;;;;;;4953375;28;19988;-83
2021/06/25 07:04:21;;;;;;;;;;;15.40;99.90;;;;;;4946700;28;21565;-77
2021/06/25 07:06:47;;;;;;;;;;;15.50;99.90;;;;;;4977987;28;19914;-80
2021/06/25 07:09:12;;;;;;;;;;;15.60;99.90;;;;;;4964028;28;19909;-83
2021/06/25 07:11:38;;;;;;;;;;;15.60;99.90;;;;;;4974967;28;20465;-79
2021/06/25 07:14:03;;;;;;;;;;;15.70;99.90;;;;;;4970037;28;19917;-85
2021/06/25 07:16:29;;;;;;;;;;;15.80;99.90;;;;;;4952505;28;19911;-80
2021/06/25 07:18:54;;;;;;;;;;;15.80;99.90;;;;;;4962320;28;19918;-80
2021/06/25 07:21:20;;;;;;;;;;;15.80;99.90;;;;;;4956803;28;19914;-86
2021/06/25 07:23:46;;;;;;;;;;;15.90;99.90;;;;;;4952669;28;19910;-82
2021/06/25 07:26:12;;;;;;;;;;;15.90;99.90;;;;;;4950972;28;19957;-80
2021/06/25 07:28:38;;;;;;;;;;;16.00;99.90;;;;;;4956992;28;20255;-81
2021/06/25 07:31:04;;;;;;;;;;;16.10;99.90;;;;;;4948830;28;19907;-80
2021/06/25 07:33:30;;;;;;;;;;;16.10;99.90;;;;;;4970530;28;19910;-81
2021/06/25 07:35:57;;;;;;;;;;;16.20;99.90;;;;;;4971774;28;20431;-84
2021/06/25 07:38:22;;;;;;;;;;;16.30;99.90;;;;;;4951445;28;19911;-81
2021/06/25 07:40:48;;;;;;;;;;;16.40;99.90;;;;;;4958115;28;20253;-78
2021/06/25 07:43:14;;;;;;;;;;;16.40;99.90;;;;;;4953330;28;19914;-81
2021/06/25 07:45:39;;;;;;;;;;;16.40;99.90;;;;;;4953409;28;19933;-81
2021/06/25 07:48:05;;;;;;;;;;;16.40;99.90;;;;;;4964080;28;19914;-80
2021/06/25 07:50:31;;;;;;;;;;;16.40;99.90;;;;;;4951261;28;19918;-79
2021/06/25 07:52:56;;;;;;;;;;;16.50;99.90;;;;;;4951918;28;20371;-81
2021/06/25 07:55:22;;;;;;;;;;;16.50;99.90;;;;;;5003887;28;19914;-81
2021/06/25 07:57:48;;;;;;;;;;;16.60;99.90;;;;;;4955778;28;19918;-80
2021/06/25 08:00:14;;;;;;;;;;;16.70;99.90;;;;;;4974719;28;20324;-78
2021/06/25 08:02:40;;;;;;;;;;;16.80;99.90;;;;;;4954982;28;19915;-81
2021/06/25 08:05:06;;;;;;;;;;;16.80;99.90;;;;;;4965197;28;19914;-81
2021/06/25 08:07:31;;;;;;;;;;;16.90;99.90;;;;;;5021617;28;19960;-80
2021/06/25 08:09:57;;;;;;;;;;;17.00;99.90;;;;;;4946426;28;19938;-81
2021/06/25 08:12:22;;;;;;;;;;;17.10;99.90;;;;;;4954257;28;19910;-80
2021/06/25 08:14:48;;;;;;;;;;;17.20;99.90;;;;;;4957321;28;19918;-82
2021/06/25 08:17:13;;;;;;;;;;;17.20;99.90;;;;;;4949337;28;19913;-79
2021/06/25 08:19:41;;;;;;;;;;;17.30;99.90;;;;;;4951101;28;19930;-83
2021/06/25 08:22:07;;;;;;;;;;;17.40;99.90;;;;;;4943147;28;19911;-75
2021/06/25 08:24:34;;;;;;;;;;;17.60;99.90;;;;;;4953123;28;19934;-83
2021/06/25 08:27:00;;;;;;;;;;;17.80;99.90;;;;;;4966449;28;19914;-78
2021/06/25 08:29:25;;;;;;;;;;;18.00;99.90;;;;;;4953978;28;20327;-80
2021/06/25 08:31:51;;;;;;;;;;;18.00;99.90;;;;;;4968350;28;19918;-81
2021/06/25 08:34:16;;;;;;;;;;;18.10;99.90;;;;;;4954035;28;19929;-82
2021/06/25 08:36:42;;;;;;;;;;;18.10;99.90;;;;;;4952312;28;19913;-82
2021/06/25 08:39:08;;;;;;;;;;;18.10;99.90;;;;;;4953510;28;20297;-86
2021/06/25 08:41:34;;;;;;;;;;;18.30;99.90;;;;;;4953340;28;19914;-83
2021/06/25 08:44:01;;;;;;;;;;;18.50;99.90;;;;;;4952533;28;20106;-80
2021/06/25 08:46:30;;;;;;;;;;;18.70;99.90;;;;;;4953741;28;19989;-82
2021/06/25 08:48:57;;;;;;;;;;;18.90;99.90;;;;;;4954031;28;20015;-83
2021/06/25 08:51:24;;;;;;;;;;;19.00;99.90;;;;;;4963323;28;19914;-87
2021/06/25 08:53:50;;;;;;;;;;;19.00;99.90;;;;;;4976809;28;19921;-86
2021/06/25 08:56:16;;;;;;;;;;;19.00;99.90;;;;;;4952721;28;19913;-93
2021/06/25 08:58:41;;;;;;;;;;;19.00;99.90;;;;;;4954608;28;20009;-86
2021/06/25 09:01:07;;;;;;;;;;;18.90;99.90;;;;;;4966801;28;19963;-82
2021/06/25 09:03:35;;;;;;;;;;;18.90;99.90;;;;;;4954298;28;19917;-85
2021/06/25 09:06:11;;;;;;;;;;;19.00;99.90;;;;;;4966751;28;19964;-84
2021/06/25 09:08:37;;;;;;;;;;;19.00;99.90;;;;;;4983244;28;20274;-85
2021/06/25 09:11:15;;;;;;;;;;;19.10;99.90;;;;;;5048123;28;19919;-82
2021/06/25 09:13:41;;;;;;;;;;;19.10;99.90;;;;;;4978669;28;19906;-85
2021/06/25 09:16:23;;;;;;;;;;;19.10;99.90;;;;;;4985493;28;19917;-81
2021/06/25 09:19:07;;;;;;;;;;;19.10;99.90;;;;;;4959065;28;20335;-87
2021/06/25 09:21:38;;;;;;;;;;;19.40;99.90;;;;;;4947969;28;20005;-87
2021/06/25 09:24:19;;;;;;;;;;;19.60;99.90;;;;;;4971716;28;19908;-83
2021/06/25 09:26:45;;;;;;;;;;;19.70;99.90;;;;;;4978720;28;19914;-87
2021/06/25 09:29:15;;;;;;;;;;;19.80;99.90;;;;;;4996724;28;19924;-84
2021/06/25 09:31:40;;;;;;;;;;;19.80;99.90;;;;;;4953086;28;19960;-83
2021/06/25 09:34:07;;;;;;;;;;;19.80;99.90;;;;;;4970228;28;19913;-84
2021/06/25 09:36:37;;;;;;;;;;;19.80;99.90;;;;;;5013090;28;19911;-89
2021/06/25 09:39:11;;;;;;;;;;;20.00;99.90;;;;;;4972962;28;19911;-84
2021/06/25 09:41:38;;;;;;;;;;;20.30;99.90;;;;;;4997845;28;19911;-82
2021/06/25 09:44:06;;;;;;;;;;;20.60;99.90;;;;;;4951940;28;19938;-88
2021/06/25 09:46:33;;;;;;;;;;;20.80;99.90;;;;;;4970290;28;20191;-93
2021/06/25 09:49:01;;;;;;;;;;;20.80;99.90;;;;;;4959041;28;19930;-83
2021/06/25 09:51:28;;;;;;;;;;;20.70;99.90;;;;;;4955332;28;19911;-85
2021/06/25 09:54:06;;;;;;;;;;;20.50;99.90;;;;;;4955084;28;19997;-85
2021/06/25 09:56:35;;;;;;;;;;;20.40;99.90;;;;;;4952481;28;20300;-85
2021/06/25 09:59:23;;;;;;;;;;;20.40;99.90;;;;;;4956458;28;19937;-91
2021/06/25 10:01:48;;;;;;;;;;;20.50;99.90;;;;;;4956706;28;19929;-83
2021/06/25 10:04:14;;;;;;;;;;;20.40;99.90;;;;;;4977057;28;19907;-85
2021/06/25 10:06:40;;;;;;;;;;;20.60;99.90;;;;;;4996691;28;19918;-79
2021/06/25 10:09:06;;;;;;;;;;;20.70;99.90;;;;;;4955653;28;20356;-82
2021/06/25 10:11:33;;;;;;;;;;;20.70;99.90;;;;;;4978854;28;20297;-85
2021/06/25 10:14:00;;;;;;;;;;;20.70;99.90;;;;;;4997498;28;19906;-84
2021/06/25 10:16:26;;;;;;;;;;;20.80;99.90;;;;;;4973782;28;19952;-85
2021/06/25 10:18:52;;;;;;;;;;;20.80;99.90;;;;;;4966620;28;19949;-83
2021/06/25 10:21:22;;;;;;;;;;;20.90;99.90;;;;;;4958094;28;19914;-81
2021/06/25 10:23:52;;;;;;;;;;;21.20;99.90;;;;;;4963977;28;19907;-84
2021/06/25 10:26:19;;;;;;;;;;;21.20;99.90;;;;;;4960433;28;19909;-84
2021/06/25 10:28:45;;;;;;;;;;;21.40;99.90;;;;;;4977522;28;19913;-82
2021/06/25 10:31:11;;;;;;;;;;;21.70;99.90;;;;;;4987150;28;19952;-83
2021/06/25 10:33:38;;;;;;;;;;;21.90;99.90;;;;;;4960329;28;20005;-84
2021/06/25 10:36:08;;;;;;;;;;;22.10;99.90;;;;;;4997245;28;19917;-87
2021/06/25 10:38:35;;;;;;;;;;;22.20;99.90;;;;;;4969963;28;19993;-83
2021/06/25 10:41:05;;;;;;;;;;;22.20;99.90;;;;;;4983356;28;19909;-82
2021/06/25 10:43:50;;;;;;;;;;;22.20;99.90;;;;;;5032152;28;19907;-86
2021/06/25 10:46:34;;;;;;;;;;;22.20;99.90;;;;;;4968920;28;19972;-89
2021/06/25 10:49:02;;;;;;;;;;;22.10;99.90;;;;;;4968564;28;19916;-81
2021/06/25 10:51:32;;;;;;;;;;;21.90;99.90;;;;;;5016449;28;19930;-80
2021/06/25 10:54:17;;;;;;;;;;;21.70;99.90;;;;;;4997407;28;19911;-91
2021/06/25 10:56:42;;;;;;;;;;;21.40;99.90;;;;;;4962796;28;19911;-87
2021/06/25 10:59:27;;;;;;;;;;;21.20;99.90;;;;;;4977310;28;19910;-88
2021/06/25 11:01:54;;;;;;;;;;;21.00;99.90;;;;;;4955527;28;20260;-90
2021/06/25 11:04:36;;;;;;;;;;;20.70;99.90;;;;;;4983382;28;20341;-80
2021/06/25 11:07:13;;;;;;;;;;;20.40;99.90;;;;;;4960880;28;19907;-87
2021/06/25 11:09:47;;;;;;;;;;;20.40;99.90;;;;;;4957384;28;20256;-84
2021/06/25 11:12:16;;;;;;;;;;;20.20;99.90;;;;;;4964516;28;19906;-88
2021/06/25 11:14:41;;;;;;;;;;;20.20;99.90;;;;;;5029506;28;19909;-88
2021/06/25 11:17:07;;;;;;;;;;;20.10;99.90;;;;;;4984666;28;19910;-84
2021/06/25 11:19:37;;;;;;;;;;;20.00;99.90;;;;;;4999270;28;20326;-79
2021/06/25 11:22:03;;;;;;;;;;;20.10;99.90;;;;;;5011971;28;19918;-79
2021/06/25 11:24:53;;;;;;;;;;;20.10;99.90;;;;;;4954169;28;19910;-82
2021/06/25 11:27:19;;;;;;;;;;;20.10;99.90;;;;;;4964878;28;19914;-80
2021/06/25 11:29:45;;;;;;;;;;;20.10;99.90;;;;;;4958051;28;19985;-86
2021/06/25 11:32:11;;;;;;;;;;;20.10;99.90;;;;;;4973982;28;19944;-90
2021/06/25 11:34:37;;;;;;;;;;;20.10;99.90;;;;;;4945363;28;20025;-92
2021/06/25 11:37:02;;;;;;;;;;;20.00;99.90;;;;;;4970848;28;19929;-80
2021/06/25 11:39:29;;;;;;;;;;;19.90;99.90;;;;;;4950387;28;19919;-82
2021/06/25 11:41:56;;;;;;;;;;;19.80;99.90;;;;;;4951821;28;19918;-79
2021/06/25 11:44:39;;;;;;;;;;;19.70;99.90;;;;;;4958404;28;19913;-86
2021/06/25 11:47:13;;;;;;;;;;;19.60;99.90;;;;;;4959741;28;19968;-91
2021/06/25 11:49:42;;;;;;;;;;;19.50;99.90;;;;;;4954218;28;19906;-92
2021/06/25 11:52:15;;;;;;;;;;;19.50;99.90;;;;;;4954785;28;19906;-92
2021/06/25 11:54:41;;;;;;;;;;;19.40;99.90;;;;;;4947880;28;19914;-87
2021/06/25 11:57:17;;;;;;;;;;;19.40;99.90;;;;;;4955521;28;19911;-90
2021/06/25 11:59:54;;;;;;;;;;;19.40;99.90;;;;;;4964501;28;20220;-85
2021/06/25 12:02:20;;;;;;;;;;;19.40;99.90;;;;;;4954643;29;19913;-78
2021/06/25 12:04:45;;;;;;;;;;;19.30;99.90;;;;;;4954116;28;19914;-83
2021/06/25 12:07:12;;;;;;;;;;;19.20;99.90;;;;;;4953146;28;20056;-79
2021/06/25 12:09:38;;;;;;;;;;;19.10;99.90;;;;;;4955282;28;19960;-79
2021/06/25 12:12:03;;;;;;;;;;;19.00;99.90;;;;;;4952522;28;20411;-83
2021/06/25 12:14:40;;;;;;;;;;;19.00;99.90;;;;;;5001618;28;20007;-83
2021/06/25 12:17:06;;;;;;;;;;;18.90;99.90;;;;;;5025481;28;19913;-80
2021/06/25 12:19:31;;;;;;;;;;;18.90;99.90;;;;;;4989163;28;19925;-84
2021/06/25 12:22:03;;;;;;;;;;;18.90;99.90;;;;;;5010317;28;19913;-80
2021/06/25 12:24:29;;;;;;;;;;;18.80;99.90;;;;;;4991246;28;19905;-84
2021/06/25 12:26:54;;;;;;;;;;;18.70;99.90;;;;;;4970237;28;19910;-79
2021/06/25 12:29:23;;;;;;;;;;;18.60;99.90;;;;;;4952859;28;20358;-80
2021/06/25 12:31:49;;;;;;;;;;;18.50;99.90;;;;;;4952636;28;20003;-79
2021/06/25 12:34:18;;;;;;;;;;;18.40;99.90;;;;;;5021345;28;20002;-84
2021/06/25 12:36:44;;;;;;;;;;;18.30;99.90;;;;;;4950113;28;19911;-79
2021/06/25 12:39:10;;;;;;;;;;;18.30;99.90;;;;;;4946687;28;19917;-86
2021/06/25 12:41:40;;;;;;;;;;;18.20;99.90;;;;;;4966180;28;19914;-82
2021/06/25 12:44:05;;;;;;;;;;;18.10;99.90;;;;;;4971698;28;19975;-86
2021/06/25 12:46:31;;;;;;;;;;;17.90;99.90;;;;;;4953297;28;19914;-88
2021/06/25 12:48:58;;;;;;;;;;;18.00;99.90;;;;;;4959318;28;19914;-89
2021/06/25 12:51:28;;;;;;;;;;;18.00;99.90;;;;;;4954422;28;19913;-87
2021/06/25 12:53:57;;;;;;;;;;;18.10;99.90;;;;;;4941910;28;20253;-86
2021/06/25 12:56:24;;;;;;;;;;;18.10;99.90;;;;;;4973874;28;19912;-85
2021/06/25 12:58:55;;;;;;;;;;;18.10;99.90;;;;;;4961714;28;19913;-89
2021/06/25 13:01:21;;;;;;;;;;;18.10;99.90;;;;;;5011261;28;20295;-89
2021/06/25 13:03:47;;;;;;;;;;;18.10;99.90;;;;;;5014504;28;19910;-87
2021/06/25 13:06:26;;;;;;;;;;;18.40;99.90;;;;;;4966372;28;20005;-91
2021/06/25 13:08:51;;;;;;;;;;;18.70;99.90;;;;;;4968135;28;19910;-87
2021/06/25 13:11:22;;;;;;;;;;;19.00;99.90;;;;;;4969297;28;19952;-88
2021/06/25 13:13:47;;;;;;;;;;;19.20;99.90;;;;;;4948598;28;19907;-86
2021/06/25 13:16:14;;;;;;;;;;;19.30;99.90;;;;;;4970416;28;20981;-88
2021/06/25 13:18:41;;;;;;;;;;;19.30;99.90;;;;;;4970022;28;19919;-83
2021/06/25 13:21:25;;;;;;;;;;;19.20;99.90;;;;;;4944464;28;20214;-89
2021/06/25 13:23:54;;;;;;;;;;;19.00;99.90;;;;;;4951791;28;20196;-89
2021/06/25 13:26:24;;;;;;;;;;;18.90;99.90;;;;;;4947044;28;19916;-82
2021/06/25 13:28:56;;;;;;;;;;;18.90;99.90;;;;;;4947276;28;19925;-86
2021/06/25 13:31:23;;;;;;;;;;;19.00;99.90;;;;;;4955063;28;19956;-86
2021/06/25 13:33:48;;;;;;;;;;;19.00;99.90;;;;;;4952727;28;19960;-83
2021/06/25 13:36:14;;;;;;;;;;;19.00;99.90;;;;;;4956505;28;19906;-87
2021/06/25 13:38:40;;;;;;;;;;;19.00;99.90;;;;;;4951857;28;19918;-90
2021/06/25 13:41:20;;;;;;;;;;;19.00;99.90;;;;;;4954554;28;20005;-90
2021/06/25 13:43:49;;;;;;;;;;;19.00;99.90;;;;;;4953740;28;19911;-90
2021/06/25 13:46:17;;;;;;;;;;;19.10;99.90;;;;;;4983643;28;19911;-89
2021/06/25 13:48:43;;;;;;;;;;;19.30;99.90;;;;;;5003646;28;19964;-84
2021/06/25 13:51:10;;;;;;;;;;;19.20;99.90;;;;;;5021632;28;20227;-88
2021/06/25 13:53:37;;;;;;;;;;;19.20;99.90;;;;;;4960111;28;19910;-91
2021/06/25 13:56:04;;;;;;;;;;;19.20;99.90;;;;;;4960858;28;19910;-91
2021/06/25 13:58:30;;;;;;;;;;;19.10;99.90;;;;;;4958087;28;19911;-81
2021/06/25 14:00:57;;;;;;;;;;;19.00;99.90;;;;;;4979573;28;20236;-78
2021/06/25 14:03:24;;;;;;;;;;;19.00;99.90;;;;;;4962227;28;19913;-89
2021/06/25 14:06:06;;;;;;;;;;;19.00;99.90;;;;;;4943641;28;19910;-86
2021/06/25 14:08:41;;;;;;;;;;;19.00;99.90;;;;;;4965554;28;19994;-87
2021/06/25 14:11:10;;;;;;;;;;;18.90;99.90;;;;;;4946797;28;19965;-83
2021/06/25 14:13:37;;;;;;;;;;;18.80;99.90;;;;;;4955244;28;19917;-85
2021/06/25 14:16:32;;;;;;;;;;;18.80;99.90;;;;;;4978592;28;19910;-88
2021/06/25 14:18:58;;;;;;;;;;;18.80;99.90;;;;;;4964453;28;19951;-86
2021/06/25 14:21:25;;;;;;;;;;;18.70;99.90;;;;;;4975275;28;20009;-82
2021/06/25 14:23:51;;;;;;;;;;;18.70;99.90;;;;;;4962186;28;19921;-80
2021/06/25 14:26:17;;;;;;;;;;;18.70;99.90;;;;;;4976096;28;20297;-87
2021/06/25 14:28:43;;;;;;;;;;;18.70;99.90;;;;;;4966943;28;19913;-85
2021/06/25 14:31:09;;;;;;;;;;;18.70;99.90;;;;;;4957250;28;19914;-83
2021/06/25 14:33:34;;;;;;;;;;;18.70;99.90;;;;;;4991373;28;19911;-85